createdAt,value
2023-04-28T00:00:40.115Z,34.83
2023-04-28T00:03:08.235Z,35.35
2023-04-28T00:05:36.320Z,33.17
2023-04-28T00:08:04.478Z,34.72
2023-04-28T00:10:32.801Z,55.80
2023-04-28T00:13:01.022Z,56.33
2023-04-28T00:15:29.129Z,57.93
2023-04-28T00:17:58.500Z,58.17
2023-04-28T00:20:26.454Z,58.95
2023-04-28T00:22:54.410Z,59.43
2023-04-28T00:25:22.366Z,59.45
2023-04-28T00:27:50.415Z,35.20
2023-04-28T00:30:18.829Z,31.77
2023-04-28T00:32:46.849Z,34.93
2023-04-28T00:35:16.206Z,33.57
2023-04-28T00:37:44.269Z,31.90
2023-04-28T00:40:12.860Z,31.30
2023-04-28T00:42:41.016Z,30.73
2023-04-28T00:45:09.961Z,32.23
2023-04-28T00:47:38.680Z,32.57
2023-04-28T00:50:07.582Z,31.30
2023-04-28T00:52:37.804Z,30.60
2023-04-28T00:55:10.964Z,30.87
2023-04-28T00:57:39.296Z,29.90
2023-04-28T01:00:10.290Z,28.30
2023-04-28T01:02:38.476Z,30.48
2023-04-28T01:05:07.179Z,32.33
2023-04-28T01:07:37.263Z,30.70
2023-04-28T01:10:05.765Z,29.73
2023-04-28T01:12:33.802Z,29.20
2023-04-28T01:15:02.295Z,31.07
2023-04-28T01:17:30.427Z,29.57
2023-04-28T01:19:58.396Z,30.73
2023-04-28T01:22:26.376Z,30.30
2023-04-28T01:24:55.792Z,32.30
2023-04-28T01:27:24.828Z,30.77
2023-04-28T01:29:52.838Z,29.20
2023-04-28T01:32:20.930Z,25.67
2023-04-28T01:34:48.913Z,26.67
2023-04-28T01:37:16.937Z,27.20
2023-04-28T01:39:45.049Z,27.03
2023-04-28T01:42:14.347Z,27.50
2023-04-28T01:44:42.315Z,27.95
2023-04-28T01:47:10.711Z,27.03
2023-04-28T01:49:38.651Z,27.40
2023-04-28T01:52:06.868Z,26.83
2023-04-28T01:54:34.845Z,27.93
2023-04-28T01:57:03.389Z,26.23
2023-04-28T01:59:32.989Z,23.07
2023-04-28T02:02:01.042Z,25.47
2023-04-28T02:04:29.101Z,25.10
2023-04-28T02:06:57.204Z,26.10
2023-04-28T02:09:25.213Z,24.17
2023-04-28T02:11:53.184Z,23.27
2023-04-28T02:14:21.153Z,24.27
2023-04-28T02:16:50.612Z,21.70
2023-04-28T02:19:18.682Z,22.03
2023-04-28T02:21:46.885Z,22.03
2023-04-28T02:24:15.050Z,23.53
2023-04-28T02:26:43.258Z,22.97
2023-04-28T02:29:11.299Z,21.70
2023-04-28T02:31:39.309Z,19.53
2023-04-28T02:34:08.701Z,21.87
2023-04-28T02:36:36.854Z,21.43
2023-04-28T02:39:04.966Z,22.17
2023-04-28T02:41:34.621Z,19.53
2023-04-28T02:44:02.593Z,18.17
2023-04-28T02:46:30.666Z,18.13
2023-04-28T02:48:58.659Z,18.50
2023-04-28T02:51:28.669Z,16.00
2023-04-28T02:53:56.605Z,16.47
2023-04-28T02:56:24.607Z,19.03
2023-04-28T02:58:52.745Z,18.57
2023-04-28T03:01:20.765Z,19.77
2023-04-28T03:03:48.969Z,19.77
2023-04-28T03:06:17.201Z,19.00
2023-04-28T03:08:46.512Z,16.73
2023-04-28T03:11:14.498Z,17.07
2023-04-28T03:13:42.566Z,17.40
2023-04-28T03:16:10.756Z,16.27
2023-04-28T03:18:38.930Z,15.20
2023-04-28T03:21:07.157Z,13.93
2023-04-28T03:23:35.116Z,14.67
2023-04-28T03:26:04.525Z,14.40
2023-04-28T03:28:32.566Z,12.20
2023-04-28T03:31:00.678Z,12.97
2023-04-28T03:33:28.685Z,12.77
2023-04-28T03:35:56.673Z,11.00
2023-04-28T03:38:24.630Z,10.90
2023-04-28T03:40:52.681Z,11.00
2023-04-28T03:43:22.105Z,12.00
2023-04-28T03:45:50.438Z,12.00
2023-04-28T03:48:18.436Z,12.03
2023-04-28T03:50:46.521Z,11.60
2023-04-28T03:53:14.502Z,12.07
2023-04-28T03:55:42.455Z,11.60
2023-04-28T03:58:10.745Z,11.43
2023-04-28T04:00:40.128Z,12.40
2023-04-28T04:03:08.275Z,13.27
2023-04-28T04:05:36.535Z,12.70
2023-04-28T04:08:06.114Z,18.97
2023-04-28T04:10:34.067Z,12.50
2023-04-28T04:13:02.013Z,12.90
2023-04-28T04:15:30.079Z,12.20
2023-04-28T04:17:59.498Z,10.10
2023-04-28T04:20:27.501Z,11.30
2023-04-28T04:22:55.575Z,11.03
2023-04-28T04:25:23.619Z,10.83
2023-04-28T04:27:51.595Z,8.00
2023-04-28T04:30:19.672Z,6.90
2023-04-28T04:32:47.659Z,6.40
2023-04-28T04:35:17.154Z,7.47
2023-04-28T04:37:45.481Z,6.57
2023-04-28T04:40:13.941Z,6.60
2023-04-28T04:42:41.895Z,8.33
2023-04-28T04:45:10.919Z,8.93
2023-04-28T04:47:39.009Z,7.03
2023-04-28T04:50:08.246Z,6.93
2023-04-28T04:52:37.563Z,6.03
2023-04-28T04:55:06.535Z,5.90
2023-04-28T04:57:34.556Z,7.00
2023-04-28T05:00:02.599Z,8.67
2023-04-28T05:02:30.641Z,8.00
2023-04-28T05:05:08.299Z,7.60
2023-04-28T05:07:48.153Z,6.03
2023-04-28T05:10:16.210Z,7.27
2023-04-28T05:12:46.763Z,8.03
2023-04-28T05:15:16.407Z,7.27
2023-04-28T05:17:44.478Z,6.93
2023-04-28T05:20:13.101Z,11.70
2023-04-28T05:22:41.418Z,10.27
2023-04-28T05:25:11.318Z,12.23
2023-04-28T05:27:40.884Z,14.90
2023-04-28T05:30:10.415Z,13.67
2023-04-28T05:32:39.220Z,18.50
2023-04-28T05:35:07.611Z,15.73
2023-04-28T05:37:35.643Z,15.43
2023-04-28T05:40:03.764Z,21.53
2023-04-28T05:42:33.155Z,14.00
2023-04-28T05:45:01.119Z,12.60
2023-04-28T05:47:30.240Z,26.80
2023-04-28T05:49:58.213Z,14.13
2023-04-28T05:52:26.236Z,13.43
2023-04-28T05:54:54.184Z,12.30
2023-04-28T05:57:22.217Z,13.00
2023-04-28T05:59:51.588Z,15.93
2023-04-28T06:02:21.962Z,13.70
2023-04-28T06:04:51.043Z,11.10
2023-04-28T06:07:28.707Z,11.83
2023-04-28T06:09:56.885Z,9.27
2023-04-28T06:12:24.936Z,9.50
2023-04-28T06:14:55.476Z,10.93
2023-04-28T06:17:24.165Z,10.97
2023-04-28T06:19:54.539Z,11.03
2023-04-28T06:22:22.485Z,10.10
2023-04-28T06:24:50.454Z,11.13
2023-04-28T06:27:18.399Z,10.80
2023-04-28T06:29:46.370Z,10.63
2023-04-28T06:32:15.725Z,10.80
2023-04-28T06:34:43.867Z,11.47
2023-04-28T06:37:11.857Z,10.83
2023-04-28T06:39:39.861Z,14.17
2023-04-28T06:42:07.869Z,13.43
2023-04-28T06:44:36.549Z,9.43
2023-04-28T06:47:05.000Z,10.20
2023-04-28T06:49:34.310Z,7.30
2023-04-28T06:52:02.375Z,5.10
2023-04-28T06:54:30.939Z,5.13
2023-04-28T06:56:58.907Z,5.27
2023-04-28T06:59:27.037Z,6.40
2023-04-28T07:01:55.010Z,3.13
2023-04-28T07:04:23.535Z,3.87
2023-04-28T07:06:53.360Z,2.23
2023-04-28T07:09:21.324Z,3.23
2023-04-28T07:11:49.308Z,2.50
2023-04-28T07:14:17.523Z,2.13
2023-04-28T07:16:45.979Z,2.00
2023-04-28T07:19:14.085Z,1.60
2023-04-28T07:21:42.229Z,1.53
2023-04-28T07:24:11.584Z,1.97
2023-04-28T07:26:39.733Z,1.60
2023-04-28T07:29:09.059Z,1.87
2023-04-28T07:31:37.001Z,1.90
2023-04-28T07:34:04.989Z,1.52
2023-04-28T07:36:33.135Z,1.90
2023-04-28T07:39:02.026Z,1.00
2023-04-28T07:41:31.361Z,3.38
2023-04-28T07:43:59.291Z,2.50
2023-04-28T07:46:27.990Z,3.30
2023-04-28T07:48:56.056Z,3.55
2023-04-28T07:51:24.021Z,2.60
2023-04-28T07:53:52.035Z,2.10
2023-04-28T07:56:20.001Z,1.87
2023-04-28T07:58:49.409Z,1.70
2023-04-28T08:01:17.389Z,1.87
2023-04-28T08:03:45.740Z,2.72
2023-04-28T08:06:14.502Z,1.30
2023-04-28T08:08:42.765Z,2.97
2023-04-28T08:11:12.259Z,1.17
2023-04-28T08:13:40.205Z,1.23
2023-04-28T08:16:09.689Z,1.23
2023-04-28T08:18:37.847Z,1.23
2023-04-28T08:21:06.112Z,1.30
2023-04-28T08:23:34.061Z,0.90
2023-04-28T08:26:02.126Z,1.77
2023-04-28T08:28:30.112Z,1.23
2023-04-28T08:30:58.629Z,1.37
2023-04-28T08:33:28.057Z,1.13
2023-04-28T08:35:56.994Z,2.30
2023-04-28T08:38:25.631Z,1.83
2023-04-28T08:40:53.627Z,1.20
2023-04-28T08:43:21.936Z,1.52
2023-04-28T08:45:50.018Z,1.37
2023-04-28T08:48:21.109Z,1.17
2023-04-28T08:50:53.438Z,2.20
2023-04-28T08:53:26.272Z,1.80
2023-04-28T08:55:57.666Z,1.10
2023-04-28T08:58:26.175Z,1.80
2023-04-28T09:00:54.510Z,1.35
2023-04-28T09:03:22.765Z,0.60
2023-04-28T09:05:52.464Z,1.90
2023-04-28T09:08:20.604Z,0.90
2023-04-28T09:10:48.617Z,1.40
2023-04-28T09:13:27.024Z,1.97
2023-04-28T09:16:01.134Z,1.40
2023-04-28T09:18:29.281Z,1.20
2023-04-28T09:21:06.954Z,1.20
2023-04-28T09:23:35.518Z,1.33
2023-04-28T09:26:05.248Z,1.67
2023-04-28T09:28:33.770Z,1.02
2023-04-28T09:31:02.226Z,2.13
2023-04-28T09:33:30.385Z,1.30
2023-04-28T09:35:58.439Z,1.55
2023-04-28T09:38:28.081Z,1.10
2023-04-28T09:40:58.367Z,2.00
2023-04-28T09:43:28.268Z,2.33
2023-04-28T09:45:57.405Z,1.30
2023-04-28T09:48:30.003Z,1.35
2023-04-28T09:50:59.344Z,2.13
2023-04-28T09:53:29.729Z,1.90
2023-04-28T09:55:58.920Z,1.40
2023-04-28T09:58:28.550Z,1.58
2023-04-28T10:00:58.335Z,2.70
2023-04-28T10:03:29.578Z,1.85
2023-04-28T10:05:59.366Z,1.25
2023-04-28T10:08:29.500Z,2.60
2023-04-28T10:10:58.612Z,2.33
2023-04-28T10:13:27.127Z,1.10
2023-04-28T10:15:58.199Z,2.25
2023-04-28T10:18:27.106Z,1.65
2023-04-28T10:20:59.291Z,2.22
2023-04-28T10:24:00.669Z,1.90
2023-04-28T10:26:52.810Z,1.60
2023-04-28T10:29:25.507Z,1.58
2023-04-28T10:32:18.027Z,1.00
2023-04-28T10:34:46.436Z,2.00
2023-04-28T10:37:16.003Z,1.45
2023-04-28T10:40:31.644Z,2.08
2023-04-28T10:42:59.652Z,1.58
2023-04-28T10:46:06.453Z,1.80
2023-04-28T10:48:57.640Z,1.67
2023-04-28T10:51:35.640Z,1.90
2023-04-28T10:54:11.118Z,2.13
2023-04-28T10:56:42.055Z,2.47
2023-04-28T10:59:28.555Z,3.35
2023-04-28T11:01:56.608Z,3.45
2023-04-28T11:04:24.893Z,2.50
2023-04-28T11:07:11.476Z,2.70
2023-04-28T11:09:50.176Z,2.25
2023-04-28T11:12:19.574Z,4.00
2023-04-28T11:14:47.554Z,2.55
2023-04-28T11:17:17.502Z,2.38
2023-04-28T11:19:48.527Z,2.47
2023-04-28T11:22:18.286Z,2.38
2023-04-28T11:24:58.208Z,2.67
2023-04-28T11:27:28.738Z,2.30
2023-04-28T11:29:56.800Z,2.90
2023-04-28T11:32:29.250Z,3.38
2023-04-28T11:34:57.528Z,3.40
2023-04-28T11:37:25.626Z,2.85
2023-04-28T11:39:53.965Z,2.40
2023-04-28T11:42:21.934Z,2.23
2023-04-28T11:44:55.344Z,3.93
2023-04-28T11:47:33.719Z,2.07
2023-04-28T11:50:03.423Z,2.17
2023-04-28T11:52:31.587Z,5.17
2023-04-28T11:55:02.476Z,5.57
2023-04-28T11:57:30.666Z,5.93
2023-04-28T12:02:52.055Z,7.20
2023-04-28T12:05:22.301Z,7.28
2023-04-28T12:07:50.505Z,7.63
2023-04-28T12:10:19.826Z,8.43
2023-04-28T12:12:52.820Z,8.35
2023-04-28T12:15:22.915Z,7.95
2023-04-28T12:17:52.473Z,10.80
2023-04-28T12:20:42.689Z,9.30
2023-04-28T12:23:10.697Z,9.50
2023-04-28T12:25:45.684Z,9.07
2023-04-28T12:28:14.076Z,9.63
2023-04-28T12:30:43.443Z,8.02
2023-04-28T12:33:25.680Z,3.78
2023-04-28T12:35:55.115Z,4.25
2023-04-28T12:38:23.342Z,4.13
2023-04-28T12:40:54.066Z,5.40
2023-04-28T12:43:23.416Z,5.33
2023-04-28T12:45:53.538Z,5.70
2023-04-28T12:48:23.786Z,5.93
2023-04-28T12:50:53.201Z,6.82
2023-04-28T12:53:21.187Z,11.45
2023-04-28T12:55:49.262Z,11.73
2023-04-28T12:58:17.955Z,15.48
2023-04-28T13:00:45.922Z,18.80
2023-04-28T13:03:14.072Z,21.92
2023-04-28T13:05:42.184Z,21.92
2023-04-28T13:08:12.929Z,22.58
2023-04-28T13:10:41.982Z,22.77
2023-04-28T13:13:09.937Z,30.23
2023-04-28T13:15:39.012Z,38.72
2023-04-28T13:18:07.282Z,26.50
2023-04-28T13:20:35.307Z,30.40
2023-04-28T13:23:03.541Z,35.92
2023-04-28T13:25:32.978Z,34.78
2023-04-28T13:28:00.973Z,33.67
2023-04-28T13:30:28.940Z,28.30
2023-04-28T13:32:57.667Z,33.20
2023-04-28T13:35:26.396Z,39.67
2023-04-28T13:38:01.604Z,49.85
2023-04-28T13:40:30.070Z,39.10
2023-04-28T13:42:59.414Z,55.33
2023-04-28T13:45:28.731Z,48.58
2023-04-28T13:47:56.816Z,56.05
2023-04-28T13:50:24.810Z,48.22
2023-04-28T13:52:52.802Z,52.63
2023-04-28T13:55:27.431Z,49.45
2023-04-28T13:57:56.640Z,45.83
2023-04-28T14:00:26.108Z,55.13
2023-04-28T14:02:54.189Z,31.80
2023-04-28T14:05:22.391Z,42.75
2023-04-28T14:07:50.456Z,44.90
2023-04-28T14:10:18.536Z,49.92
2023-04-28T14:12:46.908Z,41.80
2023-04-28T14:15:15.105Z,43.88
2023-04-28T14:17:44.515Z,44.97
2023-04-28T14:20:13.362Z,42.15
2023-04-28T14:22:41.511Z,58.70
2023-04-28T14:25:10.816Z,37.38
2023-04-28T14:27:38.759Z,47.13
2023-04-28T14:30:08.382Z,46.83
2023-04-28T14:32:37.875Z,41.22
2023-04-28T14:35:09.654Z,34.90
2023-04-28T14:37:37.860Z,36.33
2023-04-28T14:40:06.952Z,38.50
2023-04-28T14:42:37.289Z,37.08
2023-04-28T14:45:06.268Z,35.33
2023-04-28T14:47:34.771Z,26.58
2023-04-28T14:50:02.780Z,25.17
2023-04-28T14:52:32.565Z,18.83
2023-04-28T14:55:01.804Z,16.42
2023-04-28T14:57:29.870Z,16.15
2023-04-28T14:59:58.675Z,17.85
2023-04-28T15:02:29.332Z,17.98
2023-04-28T15:04:58.304Z,17.17
2023-04-28T15:07:31.083Z,16.92
2023-04-28T15:10:00.737Z,17.63
2023-04-28T15:12:30.513Z,14.50
2023-04-28T15:14:58.788Z,16.40
2023-04-28T15:17:27.156Z,16.70
2023-04-28T15:19:55.199Z,17.38
2023-04-28T15:22:23.176Z,16.92
2023-04-28T15:24:52.288Z,16.48
2023-04-28T15:27:21.707Z,15.88
2023-04-28T15:29:49.658Z,19.27
2023-04-28T15:32:17.634Z,16.80
2023-04-28T15:34:45.675Z,16.70
2023-04-28T15:37:43.102Z,16.15
2023-04-28T15:40:13.670Z,16.60
2023-04-28T15:42:48.704Z,16.20
2023-04-28T15:45:18.428Z,16.70
2023-04-28T15:47:49.446Z,16.77
2023-04-28T15:50:19.574Z,15.70
2023-04-28T15:52:50.177Z,16.00
2023-04-28T15:55:19.427Z,16.75
2023-04-28T15:57:49.216Z,17.02
2023-04-28T16:00:17.702Z,17.20
2023-04-28T16:02:46.633Z,17.25
2023-04-28T16:05:15.538Z,17.33
2023-04-28T16:07:44.505Z,16.35
2023-04-28T16:10:15.479Z,17.40
2023-04-28T16:12:44.191Z,14.07
2023-04-28T16:15:14.330Z,18.58
2023-04-28T16:17:44.348Z,16.67
2023-04-28T16:20:12.994Z,18.10
2023-04-28T16:22:42.157Z,17.48
2023-04-28T16:25:11.452Z,16.80
2023-04-28T16:27:41.571Z,17.27
2023-04-28T16:30:10.586Z,18.40
2023-04-28T16:32:40.903Z,17.90
2023-04-28T16:35:15.247Z,17.70
2023-04-28T16:37:43.714Z,17.40
2023-04-28T16:40:13.294Z,18.20
2023-04-28T16:42:42.129Z,17.52
2023-04-28T16:45:11.454Z,18.60
2023-04-28T16:47:42.525Z,17.05
2023-04-28T16:50:12.231Z,16.58
2023-04-28T16:52:40.181Z,16.70
2023-04-28T16:55:09.279Z,15.55
2023-04-28T16:57:37.285Z,16.60
2023-04-28T17:00:06.317Z,16.23
2023-04-28T17:02:34.470Z,14.88
2023-04-28T17:05:04.130Z,17.75
2023-04-28T17:07:32.090Z,15.52
2023-04-28T17:10:00.174Z,14.45
2023-04-28T17:12:28.132Z,15.18
2023-04-28T17:14:56.079Z,14.43
2023-04-28T17:17:24.181Z,15.60
2023-04-28T17:19:52.691Z,15.52
2023-04-28T17:22:22.233Z,15.60
2023-04-28T17:24:50.233Z,15.13
2023-04-28T17:27:18.224Z,14.77
2023-04-28T17:29:46.350Z,14.70
2023-04-28T17:32:14.316Z,15.27
2023-04-28T17:34:42.279Z,14.83
2023-04-28T17:37:10.244Z,16.00
2023-04-28T17:39:39.553Z,15.30
2023-04-28T17:42:07.601Z,15.33
2023-04-28T17:44:35.685Z,15.53
2023-04-28T17:47:03.850Z,14.87
2023-04-28T17:49:31.850Z,14.63
2023-04-28T17:51:59.813Z,15.70
2023-04-28T17:54:27.948Z,15.40
2023-04-28T17:56:57.869Z,16.40
2023-04-28T17:59:25.970Z,16.20
2023-04-28T18:01:56.325Z,17.30
2023-04-28T18:04:24.497Z,16.23
2023-04-28T18:06:52.450Z,17.00
2023-04-28T18:09:20.484Z,15.43
2023-04-28T18:11:48.445Z,15.23
2023-04-28T18:14:18.475Z,17.55
2023-04-28T18:16:46.778Z,16.40
2023-04-28T18:19:14.876Z,15.95
2023-04-28T18:21:42.844Z,16.20
2023-04-28T18:24:10.824Z,14.57
2023-04-28T18:26:38.759Z,15.07
2023-04-28T18:29:06.807Z,15.77
2023-04-28T18:31:36.194Z,15.18
2023-04-28T18:34:05.140Z,14.55
2023-04-28T18:36:35.725Z,13.80
2023-04-28T18:39:06.134Z,13.25
2023-04-28T18:41:35.105Z,13.13
2023-04-28T18:44:03.529Z,13.68
2023-04-28T18:46:32.714Z,13.43
2023-04-28T18:49:03.069Z,11.45
2023-04-28T18:51:31.228Z,10.90
2023-04-28T18:53:59.584Z,9.70
2023-04-28T18:56:27.685Z,8.00
2023-04-28T18:58:55.657Z,8.30
2023-04-28T19:01:24.805Z,7.30
2023-04-28T19:03:53.230Z,6.40
2023-04-28T19:06:23.021Z,5.38
2023-04-28T19:08:51.002Z,3.40
2023-04-28T19:11:19.001Z,3.05
2023-04-28T19:13:47.253Z,2.22
2023-04-28T19:16:15.275Z,2.25
2023-04-28T19:18:44.519Z,2.25
2023-04-28T19:21:13.844Z,2.13
2023-04-28T19:23:43.310Z,1.20
2023-04-28T19:26:11.491Z,1.58
2023-04-28T19:28:39.463Z,0.93
2023-04-28T19:31:07.635Z,1.10
2023-04-28T19:33:35.741Z,1.17
2023-04-28T19:36:05.378Z,1.15
2023-04-28T19:38:35.410Z,1.15
2023-04-28T19:41:04.753Z,2.05
2023-04-28T19:43:32.835Z,1.55
2023-04-28T19:46:00.850Z,1.30
2023-04-28T19:48:28.886Z,0.80
2023-04-28T19:50:56.889Z,0.85
2023-04-28T19:53:25.024Z,1.40
2023-04-28T19:55:52.988Z,1.00
2023-04-28T19:58:23.011Z,1.23
2023-04-28T20:00:51.003Z,1.58
2023-04-28T20:03:19.187Z,1.20
2023-04-28T20:05:47.358Z,1.58
2023-04-28T20:08:15.339Z,1.63
2023-04-28T20:10:43.503Z,1.65
2023-04-28T20:13:11.463Z,1.50
2023-04-28T20:15:40.867Z,2.53
2023-04-28T20:18:08.902Z,2.35
2023-04-28T20:20:36.868Z,3.03
2023-04-28T20:23:04.963Z,1.67
2023-04-28T20:25:36.842Z,1.67
2023-04-28T20:28:05.419Z,2.03
2023-04-28T20:30:33.349Z,2.15
2023-04-28T20:33:02.676Z,2.78
2023-04-28T20:35:30.644Z,1.02
2023-04-28T20:37:59.081Z,2.58
2023-04-28T20:40:27.070Z,1.55
2023-04-28T20:42:56.699Z,2.85
2023-04-28T20:45:24.905Z,3.83
2023-04-28T20:47:54.553Z,38.60
2023-04-28T20:50:25.850Z,4.43
2023-04-28T20:52:53.806Z,2.45
2023-04-28T20:55:22.962Z,2.30
2023-04-28T20:57:50.933Z,1.83
2023-04-28T21:00:18.980Z,1.27
2023-04-28T21:02:47.105Z,1.80
2023-04-28T21:05:17.214Z,2.08
2023-04-28T21:07:46.523Z,1.80
2023-04-28T21:10:14.692Z,2.00
2023-04-28T21:12:42.622Z,0.70
2023-04-28T21:15:11.114Z,1.13
2023-04-28T21:17:39.067Z,1.48
2023-04-28T21:20:08.119Z,0.60
2023-04-28T21:22:36.096Z,1.50
2023-04-28T21:25:07.083Z,1.23
2023-04-28T21:27:35.115Z,1.52
2023-04-28T21:30:03.287Z,1.83
2023-04-28T21:32:31.316Z,2.20
2023-04-28T21:34:59.279Z,1.52
2023-04-28T21:37:27.219Z,1.60
2023-04-28T21:39:57.602Z,1.45
2023-04-28T21:42:31.561Z,0.82
2023-04-28T21:44:59.560Z,1.42
2023-04-28T21:47:28.323Z,1.13
2023-04-28T21:49:56.340Z,1.33
2023-04-28T21:52:24.323Z,1.08
2023-04-28T21:54:52.348Z,1.63
2023-04-28T21:57:20.434Z,0.77
2023-04-28T21:59:50.155Z,2.15
2023-04-28T22:02:18.638Z,0.57
2023-04-28T22:04:46.927Z,1.00
2023-04-28T22:07:14.896Z,2.27
2023-04-28T22:09:42.902Z,1.80
2023-04-28T22:12:10.910Z,1.43
2023-04-28T22:14:41.585Z,1.93
2023-04-28T22:17:11.083Z,1.93
2023-04-28T22:19:39.109Z,0.93
2023-04-28T22:22:07.683Z,0.77
2023-04-28T22:24:35.847Z,1.25
2023-04-28T22:27:04.237Z,2.50
2023-04-28T22:29:32.313Z,1.03
2023-04-28T22:32:00.223Z,1.98
2023-04-28T22:34:29.543Z,1.50
2023-04-28T22:36:57.529Z,0.98
2023-04-28T22:39:26.914Z,1.73
2023-04-28T22:41:55.074Z,2.00
2023-04-28T22:44:23.046Z,0.45
2023-04-28T22:46:51.084Z,1.73
2023-04-28T22:49:24.601Z,1.58
2023-04-28T22:51:53.946Z,1.20
2023-04-28T22:54:22.054Z,1.25
2023-04-28T22:56:51.980Z,1.48
2023-04-28T22:59:22.173Z,1.55
2023-04-28T23:01:50.258Z,1.42
2023-04-28T23:04:20.545Z,2.03
2023-04-28T23:06:49.088Z,1.40
2023-04-28T23:09:18.542Z,1.00
2023-04-28T23:11:46.582Z,1.90
2023-04-28T23:14:14.516Z,2.25
2023-04-28T23:16:43.016Z,1.15
2023-04-28T23:19:10.982Z,0.90
2023-04-28T23:21:38.974Z,1.13
2023-04-28T23:24:07.399Z,0.80
2023-04-28T23:26:36.794Z,1.77
2023-04-28T23:29:04.896Z,1.17
2023-04-28T23:31:33.397Z,1.38
2023-04-28T23:34:02.323Z,1.73
2023-04-28T23:36:31.459Z,0.80
2023-04-28T23:38:59.412Z,1.80
2023-04-28T23:41:28.108Z,2.60
2023-04-28T23:43:57.421Z,2.78
2023-04-28T23:46:25.550Z,1.58
2023-04-28T23:48:53.728Z,0.70
2023-04-28T23:51:21.674Z,1.53
2023-04-28T23:53:49.598Z,0.80
2023-04-28T23:56:17.725Z,0.93
2023-04-28T23:58:45.704Z,2.17
